sensor_id;sensor_type;location;lat;lon;timestamp;temperature;humidity
31307;DHT22;17935;51.120;13.132;2023-10-13T00:02:00;15.40;99.90
31307;DHT22;17935;51.120;13.132;2023-10-13T00:04:27;15.50;99.90
31307;DHT22;17935;51.120;13.132;2023-10-13T00:06:55;15.50;99.90
31307;DHT22;17935;51.120;13.132;2023-10-13T00:09:25;15.50;99.90
31307;DHT22;17935;51.120;13.132;2023-10-13T00:12:00;15.50;99.90
31307;DHT22;17935;51.120;13.132;2023-10-13T00:14:27;15.50;99.90
31307;DHT22;17935;51.120;13.132;2023-10-13T00:17:00;15.60;99.90
31307;DHT22;17935;51.120;13.132;2023-10-13T00:19:37;15.60;99.90
31307;DHT22;17935;51.120;13.132;2023-10-13T00:22:13;15.60;99.90
31307;DHT22;17935;51.120;13.132;2023-10-13T00:24:43;15.60;99.90
31307;DHT22;17935;51.120;13.132;2023-10-13T00:27:13;15.70;99.90
31307;DHT22;17935;51.120;13.132;2023-10-13T00:30:05;15.70;99.90
31307;DHT22;17935;51.120;13.132;2023-10-13T00:32:59;15.70;99.90
31307;DHT22;17935;51.120;13.132;2023-10-13T00:35:27;15.80;99.90
31307;DHT22;17935;51.120;13.132;2023-10-13T00:38:05;15.80;99.90
31307;DHT22;17935;51.120;13.132;2023-10-13T00:40:44;15.70;99.90
31307;DHT22;17935;51.120;13.132;2023-10-13T00:43:17;15.70;99.90
31307;DHT22;17935;51.120;13.132;2023-10-13T00:45:51;15.80;99.90
31307;DHT22;17935;51.120;13.132;2023-10-13T00:48:38;15.80;99.90
31307;DHT22;17935;51.120;13.132;2023-10-13T00:51:10;15.80;99.90
31307;DHT22;17935;51.120;13.132;2023-10-13T00:53:55;15.80;99.90
31307;DHT22;17935;51.120;13.132;2023-10-13T00:56:22;15.70;99.90
31307;DHT22;17935;51.120;13.132;2023-10-13T00:58:53;15.80;99.90
31307;DHT22;17935;51.120;13.132;2023-10-13T01:01:20;15.80;99.90
31307;DHT22;17935;51.120;13.132;2023-10-13T01:03:56;15.80;99.90
31307;DHT22;17935;51.120;13.132;2023-10-13T01:06:25;15.80;99.90
31307;DHT22;17935;51.120;13.132;2023-10-13T01:09:09;15.80;99.90
31307;DHT22;17935;51.120;13.132;2023-10-13T01:14:11;15.80;99.90
31307;DHT22;17935;51.120;13.132;2023-10-13T01:16:40;15.80;99.90
31307;DHT22;17935;51.120;13.132;2023-10-13T01:19:13;15.90;99.90
31307;DHT22;17935;51.120;13.132;2023-10-13T01:21:39;15.80;99.90
31307;DHT22;17935;51.120;13.132;2023-10-13T01:24:09;15.90;99.90
31307;DHT22;17935;51.120;13.132;2023-10-13T01:26:39;15.90;99.90
31307;DHT22;17935;51.120;13.132;2023-10-13T01:29:06;15.90;99.90
31307;DHT22;17935;51.120;13.132;2023-10-13T01:31:39;15.80;99.90
31307;DHT22;17935;51.120;13.132;2023-10-13T01:34:17;15.90;99.90
31307;DHT22;17935;51.120;13.132;2023-10-13T01:36:53;15.90;99.90
31307;DHT22;17935;51.120;13.132;2023-10-13T01:39:25;15.90;99.90
31307;DHT22;17935;51.120;13.132;2023-10-13T01:41:54;15.90;99.90
31307;DHT22;17935;51.120;13.132;2023-10-13T01:44:26;15.90;99.90
31307;DHT22;17935;51.120;13.132;2023-10-13T01:46:59;15.90;99.90
31307;DHT22;17935;51.120;13.132;2023-10-13T01:49:25;15.90;99.90
31307;DHT22;17935;51.120;13.132;2023-10-13T01:51:51;15.90;99.90
31307;DHT22;17935;51.120;13.132;2023-10-13T01:54:17;15.80;99.90
31307;DHT22;17935;51.120;13.132;2023-10-13T01:56:43;15.90;99.90
31307;DHT22;17935;51.120;13.132;2023-10-13T01:59:12;15.90;99.90
31307;DHT22;17935;51.120;13.132;2023-10-13T02:01:38;15.90;99.90
31307;DHT22;17935;51.120;13.132;2023-10-13T02:04:05;15.90;99.90
31307;DHT22;17935;51.120;13.132;2023-10-13T02:06:33;15.90;99.90
31307;DHT22;17935;51.120;13.132;2023-10-13T02:09:00;15.90;99.90
31307;DHT22;17935;51.120;13.132;2023-10-13T02:11:41;15.90;99.90
31307;DHT22;17935;51.120;13.132;2023-10-13T02:14:07;15.90;99.90
31307;DHT22;17935;51.120;13.132;2023-10-13T02:16:38;15.90;99.90
31307;DHT22;17935;51.120;13.132;2023-10-13T02:19:04;16.00;99.90
31307;DHT22;17935;51.120;13.132;2023-10-13T02:21:33;15.90;99.90
31307;DHT22;17935;51.120;13.132;2023-10-13T02:24:08;15.90;99.90
31307;DHT22;17935;51.120;13.132;2023-10-13T02:26:40;15.90;99.90
31307;DHT22;17935;51.120;13.132;2023-10-13T02:29:06;16.00;99.90
31307;DHT22;17935;51.120;13.132;2023-10-13T02:31:42;15.90;99.90
31307;DHT22;17935;51.120;13.132;2023-10-13T02:34:08;15.90;99.90
31307;DHT22;17935;51.120;13.132;2023-10-13T02:36:38;15.90;99.90
31307;DHT22;17935;51.120;13.132;2023-10-13T02:39:13;16.00;99.90
31307;DHT22;17935;51.120;13.132;2023-10-13T02:41:42;16.00;99.90
31307;DHT22;17935;51.120;13.132;2023-10-13T02:44:13;16.00;99.90
31307;DHT22;17935;51.120;13.132;2023-10-13T02:46:54;16.00;99.90
31307;DHT22;17935;51.120;13.132;2023-10-13T02:49:22;16.00;99.90
31307;DHT22;17935;51.120;13.132;2023-10-13T02:51:48;16.00;99.90
31307;DHT22;17935;51.120;13.132;2023-10-13T02:54:13;16.00;99.90
31307;DHT22;17935;51.120;13.132;2023-10-13T02:56:44;16.00;99.90
31307;DHT22;17935;51.120;13.132;2023-10-13T02:59:26;16.00;99.90
31307;DHT22;17935;51.120;13.132;2023-10-13T03:02:15;16.00;99.90
31307;DHT22;17935;51.120;13.132;2023-10-13T03:07:16;15.90;99.90
31307;DHT22;17935;51.120;13.132;2023-10-13T03:09:51;15.90;99.90
31307;DHT22;17935;51.120;13.132;2023-10-13T03:12:19;15.90;99.90
31307;DHT22;17935;51.120;13.132;2023-10-13T03:14:51;15.90;99.90
31307;DHT22;17935;51.120;13.132;2023-10-13T03:17:38;15.90;99.90
31307;DHT22;17935;51.120;13.132;2023-10-13T03:20:18;15.90;99.90
31307;DHT22;17935;51.120;13.132;2023-10-13T03:23:31;15.90;99.90
31307;DHT22;17935;51.120;13.132;2023-10-13T03:29:39;16.00;99.90
31307;DHT22;17935;51.120;13.132;2023-10-13T03:38:39;16.00;99.90
31307;DHT22;17935;51.120;13.132;2023-10-13T03:41:10;16.00;99.90
31307;DHT22;17935;51.120;13.132;2023-10-13T03:43:48;16.00;99.90
31307;DHT22;17935;51.120;13.132;2023-10-13T03:46:17;15.90;99.90
31307;DHT22;17935;51.120;13.132;2023-10-13T03:48:54;15.80;99.90
31307;DHT22;17935;51.120;13.132;2023-10-13T03:54:45;15.70;99.90
31307;DHT22;17935;51.120;13.132;2023-10-13T03:57:13;15.70;99.90
31307;DHT22;17935;51.120;13.132;2023-10-13T03:59:40;15.70;99.90
31307;DHT22;17935;51.120;13.132;2023-10-13T04:02:20;15.70;99.90
31307;DHT22;17935;51.120;13.132;2023-10-13T04:05:21;15.70;99.90
31307;DHT22;17935;51.120;13.132;2023-10-13T04:11:44;15.70;99.90
31307;DHT22;17935;51.120;13.132;2023-10-13T04:15:02;15.80;99.90
31307;DHT22;17935;51.120;13.132;2023-10-13T04:17:54;15.80;99.90
31307;DHT22;17935;51.120;13.132;2023-10-13T04:20:20;15.90;99.90
31307;DHT22;17935;51.120;13.132;2023-10-13T04:23:29;15.90;99.90
31307;DHT22;17935;51.120;13.132;2023-10-13T04:26:27;15.90;99.90
31307;DHT22;17935;51.120;13.132;2023-10-13T04:29:26;15.90;99.90
31307;DHT22;17935;51.120;13.132;2023-10-13T04:32:38;15.90;99.90
31307;DHT22;17935;51.120;13.132;2023-10-13T04:35:10;15.90;99.90
31307;DHT22;17935;51.120;13.132;2023-10-13T04:37:55;15.90;99.90
31307;DHT22;17935;51.120;13.132;2023-10-13T04:44:50;15.90;99.90
31307;DHT22;17935;51.120;13.132;2023-10-13T04:51:15;15.80;99.90
31307;DHT22;17935;51.120;13.132;2023-10-13T04:54:10;15.80;99.90
31307;DHT22;17935;51.120;13.132;2023-10-13T04:56:50;15.70;99.90
31307;DHT22;17935;51.120;13.132;2023-10-13T04:59:50;15.50;99.90
31307;DHT22;17935;51.120;13.132;2023-10-13T05:02:46;15.50;99.90
31307;DHT22;17935;51.120;13.132;2023-10-13T05:05:47;15.40;99.90
31307;DHT22;17935;51.120;13.132;2023-10-13T05:08:42;15.30;99.90
31307;DHT22;17935;51.120;13.132;2023-10-13T05:11:26;15.30;99.90
31307;DHT22;17935;51.120;13.132;2023-10-13T05:14:25;15.30;99.90
31307;DHT22;17935;51.120;13.132;2023-10-13T05:17:10;15.20;99.90
31307;DHT22;17935;51.120;13.132;2023-10-13T05:20:15;15.20;99.90
31307;DHT22;17935;51.120;13.132;2023-10-13T05:23:02;15.10;99.90
31307;DHT22;17935;51.120;13.132;2023-10-13T05:25:49;15.00;99.90
31307;DHT22;17935;51.120;13.132;2023-10-13T05:28:33;15.10;99.90
31307;DHT22;17935;51.120;13.132;2023-10-13T05:31:17;15.20;99.90
31307;DHT22;17935;51.120;13.132;2023-10-13T05:34:01;15.20;99.90
31307;DHT22;17935;51.120;13.132;2023-10-13T05:36:49;15.30;99.90
31307;DHT22;17935;51.120;13.132;2023-10-13T05:39:33;15.30;99.90
31307;DHT22;17935;51.120;13.132;2023-10-13T05:42:17;15.30;99.90
31307;DHT22;17935;51.120;13.132;2023-10-13T05:45:04;15.30;99.90
31307;DHT22;17935;51.120;13.132;2023-10-13T05:47:45;15.40;99.90
31307;DHT22;17935;51.120;13.132;2023-10-13T05:50:12;15.60;99.90
31307;DHT22;17935;51.120;13.132;2023-10-13T05:52:39;15.80;99.90
31307;DHT22;17935;51.120;13.132;2023-10-13T05:55:27;15.90;99.90
31307;DHT22;17935;51.120;13.132;2023-10-13T05:58:12;16.00;99.90
31307;DHT22;17935;51.120;13.132;2023-10-13T06:00:56;16.10;99.90
31307;DHT22;17935;51.120;13.132;2023-10-13T06:03:43;16.20;99.90
31307;DHT22;17935;51.120;13.132;2023-10-13T06:06:35;16.40;99.90
31307;DHT22;17935;51.120;13.132;2023-10-13T06:09:19;16.50;99.90
31307;DHT22;17935;51.120;13.132;2023-10-13T06:12:04;16.60;99.90
31307;DHT22;17935;51.120;13.132;2023-10-13T06:14:50;16.70;99.90
31307;DHT22;17935;51.120;13.132;2023-10-13T06:17:35;16.80;99.90
31307;DHT22;17935;51.120;13.132;2023-10-13T06:20:22;16.90;99.90
31307;DHT22;17935;51.120;13.132;2023-10-13T06:23:06;17.00;99.90
31307;DHT22;17935;51.120;13.132;2023-10-13T06:25:53;17.20;99.90
31307;DHT22;17935;51.120;13.132;2023-10-13T06:28:38;17.20;99.90
31307;DHT22;17935;51.120;13.132;2023-10-13T06:31:33;17.30;99.90
31307;DHT22;17935;51.120;13.132;2023-10-13T06:34:12;17.40;99.90
31307;DHT22;17935;51.120;13.132;2023-10-13T06:36:41;17.50;99.90
31307;DHT22;17935;51.120;13.132;2023-10-13T06:39:12;17.60;99.90
31307;DHT22;17935;51.120;13.132;2023-10-13T06:42:00;17.80;99.90
31307;DHT22;17935;51.120;13.132;2023-10-13T06:44:28;17.90;99.90
31307;DHT22;17935;51.120;13.132;2023-10-13T06:46:58;18.00;99.90
31307;DHT22;17935;51.120;13.132;2023-10-13T06:49:27;18.10;99.90
31307;DHT22;17935;51.120;13.132;2023-10-13T06:51:54;18.10;99.90
31307;DHT22;17935;51.120;13.132;2023-10-13T06:54:20;18.20;99.90
31307;DHT22;17935;51.120;13.132;2023-10-13T06:56:52;18.20;99.90
31307;DHT22;17935;51.120;13.132;2023-10-13T06:59:18;18.20;99.90
31307;DHT22;17935;51.120;13.132;2023-10-13T07:01:45;18.50;99.90
31307;DHT22;17935;51.120;13.132;2023-10-13T07:04:13;18.70;99.90
31307;DHT22;17935;51.120;13.132;2023-10-13T07:06:43;18.90;99.90
31307;DHT22;17935;51.120;13.132;2023-10-13T07:09:18;19.20;99.90
31307;DHT22;17935;51.120;13.132;2023-10-13T07:12:06;19.80;99.90
31307;DHT22;17935;51.120;13.132;2023-10-13T07:14:45;20.60;99.90
31307;DHT22;17935;51.120;13.132;2023-10-13T07:17:20;21.30;99.90
31307;DHT22;17935;51.120;13.132;2023-10-13T07:19:52;21.60;99.90
31307;DHT22;17935;51.120;13.132;2023-10-13T07:22:19;21.70;99.90
31307;DHT22;17935;51.120;13.132;2023-10-13T07:24:51;21.80;99.90
31307;DHT22;17935;51.120;13.132;2023-10-13T07:27:28;21.80;99.90
31307;DHT22;17935;51.120;13.132;2023-10-13T07:30:00;22.10;98.50
31307;DHT22;17935;51.120;13.132;2023-10-13T07:32:39;22.10;96.90
31307;DHT22;17935;51.120;13.132;2023-10-13T07:35:16;22.10;96.80
31307;DHT22;17935;51.120;13.132;2023-10-13T07:37:47;22.20;96.50
31307;DHT22;17935;51.120;13.132;2023-10-13T07:40:20;22.30;95.40
31307;DHT22;17935;51.120;13.132;2023-10-13T07:42:54;22.30;95.00
31307;DHT22;17935;51.120;13.132;2023-10-13T07:45:39;22.20;94.90
31307;DHT22;17935;51.120;13.132;2023-10-13T07:48:12;22.50;94.70
31307;DHT22;17935;51.120;13.132;2023-10-13T07:51:22;22.60;93.60
31307;DHT22;17935;51.120;13.132;2023-10-13T07:53:51;22.50;93.70
31307;DHT22;17935;51.120;13.132;2023-10-13T07:56:32;22.40;93.40
31307;DHT22;17935;51.120;13.132;2023-10-13T07:59:05;22.30;93.40
31307;DHT22;17935;51.120;13.132;2023-10-13T08:01:34;22.30;93.60
31307;DHT22;17935;51.120;13.132;2023-10-13T08:04:02;22.50;93.60
31307;DHT22;17935;51.120;13.132;2023-10-13T08:06:38;22.40;93.20
31307;DHT22;17935;51.120;13.132;2023-10-13T08:09:13;22.20;93.20
31307;DHT22;17935;51.120;13.132;2023-10-13T08:12:08;22.00;93.60
31307;DHT22;17935;51.120;13.132;2023-10-13T08:14:55;21.80;94.40
31307;DHT22;17935;51.120;13.132;2023-10-13T08:17:37;21.90;94.50
31307;DHT22;17935;51.120;13.132;2023-10-13T08:20:03;21.80;94.70
31307;DHT22;17935;51.120;13.132;2023-10-13T08:22:38;21.70;94.70
31307;DHT22;17935;51.120;13.132;2023-10-13T08:25:12;21.60;95.10
31307;DHT22;17935;51.120;13.132;2023-10-13T08:27:46;21.70;95.10
31307;DHT22;17935;51.120;13.132;2023-10-13T08:30:31;22.00;95.30
31307;DHT22;17935;51.120;13.132;2023-10-13T08:33:08;22.30;94.30
31307;DHT22;17935;51.120;13.132;2023-10-13T08:35:43;22.70;93.40
31307;DHT22;17935;51.120;13.132;2023-10-13T08:38:31;22.70;92.60
31307;DHT22;17935;51.120;13.132;2023-10-13T08:41:09;22.50;92.70
31307;DHT22;17935;51.120;13.132;2023-10-13T08:43:50;22.10;93.10
31307;DHT22;17935;51.120;13.132;2023-10-13T08:46:17;21.70;94.40
31307;DHT22;17935;51.120;13.132;2023-10-13T08:49:10;21.50;94.80
31307;DHT22;17935;51.120;13.132;2023-10-13T08:51:42;21.30;95.50
31307;DHT22;17935;51.120;13.132;2023-10-13T08:54:17;21.40;95.70
31307;DHT22;17935;51.120;13.132;2023-10-13T08:57:11;21.40;96.00
31307;DHT22;17935;51.120;13.132;2023-10-13T09:00:01;21.50;96.20
31307;DHT22;17935;51.120;13.132;2023-10-13T09:02:46;21.60;96.30
31307;DHT22;17935;51.120;13.132;2023-10-13T09:05:30;22.00;95.70
31307;DHT22;17935;51.120;13.132;2023-10-13T09:08:07;22.50;95.10
31307;DHT22;17935;51.120;13.132;2023-10-13T09:10:44;23.10;93.10
31307;DHT22;17935;51.120;13.132;2023-10-13T09:13:10;23.30;92.30
31307;DHT22;17935;51.120;13.132;2023-10-13T09:15:44;23.60;92.00
31307;DHT22;17935;51.120;13.132;2023-10-13T09:18:27;23.70;91.00
31307;DHT22;17935;51.120;13.132;2023-10-13T09:21:12;23.50;91.10
31307;DHT22;17935;51.120;13.132;2023-10-13T09:24:00;23.50;90.80
31307;DHT22;17935;51.120;13.132;2023-10-13T09:26:43;23.40;91.00
31307;DHT22;17935;51.120;13.132;2023-10-13T09:29:17;23.40;91.10
31307;DHT22;17935;51.120;13.132;2023-10-13T09:31:47;23.30;90.80
31307;DHT22;17935;51.120;13.132;2023-10-13T09:34:23;23.20;91.20
31307;DHT22;17935;51.120;13.132;2023-10-13T09:36:58;23.20;91.20
31307;DHT22;17935;51.120;13.132;2023-10-13T09:39:27;23.00;91.20
31307;DHT22;17935;51.120;13.132;2023-10-13T09:41:59;22.80;91.70
31307;DHT22;17935;51.120;13.132;2023-10-13T09:44:26;22.50;92.20
31307;DHT22;17935;51.120;13.132;2023-10-13T09:47:03;22.30;92.60
31307;DHT22;17935;51.120;13.132;2023-10-13T09:49:38;22.00;93.60
31307;DHT22;17935;51.120;13.132;2023-10-13T09:52:15;21.70;94.50
31307;DHT22;17935;51.120;13.132;2023-10-13T09:55:16;21.50;95.60
31307;DHT22;17935;51.120;13.132;2023-10-13T09:57:47;21.30;97.30
31307;DHT22;17935;51.120;13.132;2023-10-13T10:00:18;21.10;99.20
31307;DHT22;17935;51.120;13.132;2023-10-13T10:02:56;20.90;99.90
31307;DHT22;17935;51.120;13.132;2023-10-13T10:05:24;20.80;99.90
31307;DHT22;17935;51.120;13.132;2023-10-13T10:07:57;20.80;99.90
31307;DHT22;17935;51.120;13.132;2023-10-13T10:10:42;20.70;99.90
31307;DHT22;17935;51.120;13.132;2023-10-13T10:13:21;20.60;99.90
31307;DHT22;17935;51.120;13.132;2023-10-13T10:15:51;20.50;99.90
31307;DHT22;17935;51.120;13.132;2023-10-13T10:18:21;20.50;99.90
31307;DHT22;17935;51.120;13.132;2023-10-13T10:20:48;20.50;99.90
31307;DHT22;17935;51.120;13.132;2023-10-13T10:23:27;20.60;99.90
31307;DHT22;17935;51.120;13.132;2023-10-13T10:26:14;20.80;99.90
31307;DHT22;17935;51.120;13.132;2023-10-13T10:28:47;21.00;99.90
31307;DHT22;17935;51.120;13.132;2023-10-13T10:31:13;21.10;99.90
31307;DHT22;17935;51.120;13.132;2023-10-13T10:33:45;21.20;99.90
31307;DHT22;17935;51.120;13.132;2023-10-13T10:36:17;21.30;99.90
31307;DHT22;17935;51.120;13.132;2023-10-13T10:38:54;21.30;99.90
31307;DHT22;17935;51.120;13.132;2023-10-13T10:41:29;21.60;99.90
31307;DHT22;17935;51.120;13.132;2023-10-13T10:44:14;21.90;99.60
31307;DHT22;17935;51.120;13.132;2023-10-13T10:46:48;22.10;98.00
31307;DHT22;17935;51.120;13.132;2023-10-13T10:49:26;22.40;97.00
31307;DHT22;17935;51.120;13.132;2023-10-13T10:51:59;22.50;95.70
31307;DHT22;17935;51.120;13.132;2023-10-13T10:54:27;22.50;95.70
31307;DHT22;17935;51.120;13.132;2023-10-13T10:56:59;22.30;95.80
31307;DHT22;17935;51.120;13.132;2023-10-13T10:59:38;22.30;95.60
31307;DHT22;17935;51.120;13.132;2023-10-13T11:02:04;22.20;95.50
31307;DHT22;17935;51.120;13.132;2023-10-13T11:04:32;22.30;95.20
31307;DHT22;17935;51.120;13.132;2023-10-13T11:07:06;22.40;94.80
31307;DHT22;17935;51.120;13.132;2023-10-13T11:09:34;22.50;94.00
31307;DHT22;17935;51.120;13.132;2023-10-13T11:14:39;22.50;93.20
31307;DHT22;17935;51.120;13.132;2023-10-13T11:17:05;22.70;92.50
31307;DHT22;17935;51.120;13.132;2023-10-13T11:19:39;23.00;91.50
31307;DHT22;17935;51.120;13.132;2023-10-13T11:22:13;23.30;90.90
31307;DHT22;17935;51.120;13.132;2023-10-13T11:24:56;23.40;90.30
31307;DHT22;17935;51.120;13.132;2023-10-13T11:27:32;23.50;88.90
31307;DHT22;17935;51.120;13.132;2023-10-13T11:30:18;23.30;88.90
31307;DHT22;17935;51.120;13.132;2023-10-13T11:33:05;23.00;88.60
31307;DHT22;17935;51.120;13.132;2023-10-13T11:35:32;22.90;89.50
31307;DHT22;17935;51.120;13.132;2023-10-13T11:38:17;22.80;89.20
31307;DHT22;17935;51.120;13.132;2023-10-13T11:41:01;22.60;87.70
31307;DHT22;17935;51.120;13.132;2023-10-13T11:46:12;22.40;89.40
31307;DHT22;17935;51.120;13.132;2023-10-13T11:48:40;22.40;89.40
31307;DHT22;17935;51.120;13.132;2023-10-13T11:51:12;22.50;89.40
31307;DHT22;17935;51.120;13.132;2023-10-13T11:53:51;22.60;89.20
31307;DHT22;17935;51.120;13.132;2023-10-13T11:56:21;22.80;87.60
31307;DHT22;17935;51.120;13.132;2023-10-13T11:58:47;23.00;86.20
31307;DHT22;17935;51.120;13.132;2023-10-13T12:01:13;23.20;85.40
31307;DHT22;17935;51.120;13.132;2023-10-13T12:03:43;23.30;84.10
31307;DHT22;17935;51.120;13.132;2023-10-13T12:06:29;23.30;83.60
31307;DHT22;17935;51.120;13.132;2023-10-13T12:09:08;23.10;84.40
31307;DHT22;17935;51.120;13.132;2023-10-13T12:11:57;23.00;84.80
31307;DHT22;17935;51.120;13.132;2023-10-13T12:14:26;22.90;85.00
31307;DHT22;17935;51.120;13.132;2023-10-13T12:17:21;22.90;85.00
31307;DHT22;17935;51.120;13.132;2023-10-13T12:20:08;23.00;85.20
31307;DHT22;17935;51.120;13.132;2023-10-13T12:22:46;23.10;84.30
31307;DHT22;17935;51.120;13.132;2023-10-13T12:25:21;23.30;84.10
31307;DHT22;17935;51.120;13.132;2023-10-13T12:27:59;23.50;83.40
31307;DHT22;17935;51.120;13.132;2023-10-13T12:30:45;23.70;82.00
31307;DHT22;17935;51.120;13.132;2023-10-13T12:33:15;23.80;81.40
31307;DHT22;17935;51.120;13.132;2023-10-13T12:35:50;24.10;80.00
31307;DHT22;17935;51.120;13.132;2023-10-13T12:38:38;24.20;78.70
31307;DHT22;17935;51.120;13.132;2023-10-13T12:41:22;24.40;78.10
31307;DHT22;17935;51.120;13.132;2023-10-13T12:44:07;24.50;76.30
31307;DHT22;17935;51.120;13.132;2023-10-13T12:46:52;24.80;76.30
31307;DHT22;17935;51.120;13.132;2023-10-13T12:49:39;25.30;76.10
31307;DHT22;17935;51.120;13.132;2023-10-13T12:52:12;25.30;73.70
31307;DHT22;17935;51.120;13.132;2023-10-13T12:55:16;25.30;73.90
31307;DHT22;17935;51.120;13.132;2023-10-13T12:57:46;25.60;73.70
31307;DHT22;17935;51.120;13.132;2023-10-13T13:02:58;25.90;71.60
31307;DHT22;17935;51.120;13.132;2023-10-13T13:05:26;25.90;71.40
31307;DHT22;17935;51.120;13.132;2023-10-13T13:12:03;26.00;71.60
31307;DHT22;17935;51.120;13.132;2023-10-13T13:17:19;26.00;71.30
31307;DHT22;17935;51.120;13.132;2023-10-13T13:20:27;26.10;71.10
31307;DHT22;17935;51.120;13.132;2023-10-13T13:25:42;26.20;70.60
31307;DHT22;17935;51.120;13.132;2023-10-13T13:28:14;26.50;69.80
31307;DHT22;17935;51.120;13.132;2023-10-13T13:30:45;26.50;68.30
31307;DHT22;17935;51.120;13.132;2023-10-13T13:33:16;26.40;68.00
31307;DHT22;17935;51.120;13.132;2023-10-13T13:36:02;26.20;68.40
31307;DHT22;17935;51.120;13.132;2023-10-13T13:38:29;26.10;68.20
31307;DHT22;17935;51.120;13.132;2023-10-13T13:40:57;25.70;68.60
31307;DHT22;17935;51.120;13.132;2023-10-13T13:43:24;25.40;69.70
31307;DHT22;17935;51.120;13.132;2023-10-13T13:46:21;25.10;70.10
31307;DHT22;17935;51.120;13.132;2023-10-13T13:49:24;25.00;70.50
31307;DHT22;17935;51.120;13.132;2023-10-13T13:52:05;24.80;70.50
31307;DHT22;17935;51.120;13.132;2023-10-13T13:54:31;24.90;71.00
31307;DHT22;17935;51.120;13.132;2023-10-13T13:56:57;25.20;70.80
31307;DHT22;17935;51.120;13.132;2023-10-13T13:59:43;25.50;69.90
31307;DHT22;17935;51.120;13.132;2023-10-13T14:02:17;25.80;69.40
31307;DHT22;17935;51.120;13.132;2023-10-13T14:04:49;25.90;68.50
31307;DHT22;17935;51.120;13.132;2023-10-13T14:10:16;25.80;68.20
31307;DHT22;17935;51.120;13.132;2023-10-13T14:13:02;25.90;68.00
31307;DHT22;17935;51.120;13.132;2023-10-13T14:15:47;25.90;68.20
31307;DHT22;17935;51.120;13.132;2023-10-13T14:18:21;25.90;67.80
31307;DHT22;17935;51.120;13.132;2023-10-13T14:20:55;25.80;68.20
31307;DHT22;17935;51.120;13.132;2023-10-13T14:23:23;25.70;67.40
31307;DHT22;17935;51.120;13.132;2023-10-13T14:25:50;25.50;68.20
31307;DHT22;17935;51.120;13.132;2023-10-13T14:28:16;25.30;68.40
31307;DHT22;17935;51.120;13.132;2023-10-13T14:30:43;25.20;68.60
31307;DHT22;17935;51.120;13.132;2023-10-13T14:33:09;25.10;69.10
31307;DHT22;17935;51.120;13.132;2023-10-13T14:38:02;24.80;67.80
31307;DHT22;17935;51.120;13.132;2023-10-13T14:40:29;24.60;68.30
31307;DHT22;17935;51.120;13.132;2023-10-13T14:42:54;24.30;68.20
31307;DHT22;17935;51.120;13.132;2023-10-13T14:45:21;24.10;67.80
31307;DHT22;17935;51.120;13.132;2023-10-13T14:47:47;24.00;68.80
31307;DHT22;17935;51.120;13.132;2023-10-13T14:50:13;23.90;68.10
31307;DHT22;17935;51.120;13.132;2023-10-13T14:52:50;23.90;68.30
31307;DHT22;17935;51.120;13.132;2023-10-13T14:55:16;23.90;68.10
31307;DHT22;17935;51.120;13.132;2023-10-13T14:57:48;23.90;68.30
31307;DHT22;17935;51.120;13.132;2023-10-13T15:00:15;23.80;68.50
31307;DHT22;17935;51.120;13.132;2023-10-13T15:02:43;23.80;68.80
31307;DHT22;17935;51.120;13.132;2023-10-13T15:05:14;23.80;69.10
31307;DHT22;17935;51.120;13.132;2023-10-13T15:07:45;23.80;68.00
31307;DHT22;17935;51.120;13.132;2023-10-13T15:10:16;23.90;67.90
31307;DHT22;17935;51.120;13.132;2023-10-13T15:12:45;24.00;67.20
31307;DHT22;17935;51.120;13.132;2023-10-13T15:15:10;24.00;67.00
31307;DHT22;17935;51.120;13.132;2023-10-13T15:17:42;24.00;67.40
31307;DHT22;17935;51.120;13.132;2023-10-13T15:20:08;24.00;66.90
31307;DHT22;17935;51.120;13.132;2023-10-13T15:22:52;23.90;67.30
31307;DHT22;17935;51.120;13.132;2023-10-13T15:25:25;23.80;67.30
31307;DHT22;17935;51.120;13.132;2023-10-13T15:28:01;23.70;67.40
31307;DHT22;17935;51.120;13.132;2023-10-13T15:30:33;23.60;68.20
31307;DHT22;17935;51.120;13.132;2023-10-13T15:33:28;23.50;68.40
31307;DHT22;17935;51.120;13.132;2023-10-13T15:35:56;23.30;68.90
31307;DHT22;17935;51.120;13.132;2023-10-13T15:38:22;23.20;69.10
31307;DHT22;17935;51.120;13.132;2023-10-13T15:40:51;23.10;69.60
31307;DHT22;17935;51.120;13.132;2023-10-13T15:43:19;23.00;69.60
31307;DHT22;17935;51.120;13.132;2023-10-13T15:45:45;23.00;69.90
31307;DHT22;17935;51.120;13.132;2023-10-13T15:48:14;23.00;69.50
31307;DHT22;17935;51.120;13.132;2023-10-13T15:50:41;22.90;69.70
31307;DHT22;17935;51.120;13.132;2023-10-13T15:53:08;22.70;70.10
31307;DHT22;17935;51.120;13.132;2023-10-13T15:55:37;22.50;70.50
31307;DHT22;17935;51.120;13.132;2023-10-13T15:58:04;22.30;71.50
31307;DHT22;17935;51.120;13.132;2023-10-13T16:00:35;22.10;71.50
31307;DHT22;17935;51.120;13.132;2023-10-13T16:03:01;21.90;72.50
31307;DHT22;17935;51.120;13.132;2023-10-13T16:05:34;21.70;72.50
31307;DHT22;17935;51.120;13.132;2023-10-13T16:08:00;21.60;72.70
31307;DHT22;17935;51.120;13.132;2023-10-13T16:10:26;21.50;72.90
31307;DHT22;17935;51.120;13.132;2023-10-13T16:12:52;21.40;73.20
31307;DHT22;17935;51.120;13.132;2023-10-13T16:15:19;21.30;73.60
31307;DHT22;17935;51.120;13.132;2023-10-13T16:17:47;21.30;73.60
31307;DHT22;17935;51.120;13.132;2023-10-13T16:20:33;21.20;74.00
31307;DHT22;17935;51.120;13.132;2023-10-13T16:23:03;21.10;74.50
31307;DHT22;17935;51.120;13.132;2023-10-13T16:25:30;21.00;74.60
31307;DHT22;17935;51.120;13.132;2023-10-13T16:27:56;21.00;74.90
31307;DHT22;17935;51.120;13.132;2023-10-13T16:30:22;20.90;74.90
31307;DHT22;17935;51.120;13.132;2023-10-13T16:32:47;20.80;75.10
31307;DHT22;17935;51.120;13.132;2023-10-13T16:35:15;20.70;75.50
31307;DHT22;17935;51.120;13.132;2023-10-13T16:37:48;20.60;75.60
31307;DHT22;17935;51.120;13.132;2023-10-13T16:40:19;20.40;76.00
31307;DHT22;17935;51.120;13.132;2023-10-13T16:42:46;20.40;76.00
31307;DHT22;17935;51.120;13.132;2023-10-13T16:45:12;20.30;76.40
31307;DHT22;17935;51.120;13.132;2023-10-13T16:47:44;20.30;76.60
31307;DHT22;17935;51.120;13.132;2023-10-13T16:50:14;20.30;76.10
31307;DHT22;17935;51.120;13.132;2023-10-13T16:52:43;20.40;75.70
31307;DHT22;17935;51.120;13.132;2023-10-13T16:55:14;20.50;75.10
31307;DHT22;17935;51.120;13.132;2023-10-13T16:57:49;20.70;74.20
31307;DHT22;17935;51.120;13.132;2023-10-13T17:00:16;20.80;73.60
31307;DHT22;17935;51.120;13.132;2023-10-13T17:02:42;20.80;73.50